Love Valley, North Carolina
Current Conditions -  °F | °C
As of 5:15 AM on Monday 26 Jan 2015 (Local Time) from KSVH Reporting Station
Scattered Clouds Scattered Clouds  
Wind Chill: 39°   Ceiling: Unl
Heat Index: 39°   Visibility: 10mi
Dew Point: 32°   Wind: 0mph
Humidity: 75%   Direction: NA
Pressure: 29.62"   Gusts: NA
Location:  35.8306°N, 80.9003°W
Report Text: KSVH 261015Z AUTO 00000KT 10SM SCT120 04/00 A2962 RMK AO2 T00401001
Loading
Personal Weather Stations






























Interactive Weather Map New forecast layout! Learn more

10-Day Weather Forecast

Advertisements
Track Severe Weather on mobile